Time,TemperatureF,DewpointF,PressureIn,WindDirection,WindDirectionDegrees,WindSpeedMPH,WindSpeedGustMPH,Humidity,HourlyPrecipIn,Conditions,Clouds,dailyrainin,SoftwareType,DateUTC
2013-02-02 00:03:00,19.6,8.9,30.04,East,90,1.3,2.7,63,0.00,,,0.00,WUHU216HW,2013-02-02 05:03:00,
2013-02-02 00:08:00,19.8,9.1,30.04,NE,45,2.2,4.3,63,0.00,,,0.00,WUHU216HW,2013-02-02 05:08:00,
2013-02-02 00:13:00,20.0,9.3,30.04,SE,135,0.9,4.3,63,0.00,,,0.00,WUHU216HW,2013-02-02 05:13:00,
2013-02-02 00:18:00,19.8,9.1,30.05,ENE,68,2.2,2.2,63,0.00,,,0.00,WUHU216HW,2013-02-02 05:18:00,
2013-02-02 00:23:00,19.8,9.1,30.05,ENE,68,0.9,2.2,63,0.00,,,0.00,WUHU216HW,2013-02-02 05:23:00,
2013-02-02 00:28:00,19.6,8.9,30.05,NE,45,4.0,4.0,63,0.00,,,0.00,WUHU216HW,2013-02-02 05:28:00,
2013-02-02 00:33:00,19.8,9.8,30.05,East,90,3.8,4.0,65,0.00,,,0.00,WUHU216HW,2013-02-02 05:33:00,
2013-02-02 00:38:00,19.8,9.5,30.04,East,90,0.7,3.8,64,0.00,,,0.00,WUHU216HW,2013-02-02 05:38:00,
2013-02-02 00:43:00,19.8,9.5,30.05,NE,45,1.6,2.7,64,0.00,,,0.00,WUHU216HW,2013-02-02 05:43:00,
2013-02-02 00:48:00,19.8,9.8,30.05,NE,45,2.5,3.4,65,0.00,,,0.00,WUHU216HW,2013-02-02 05:48:00,
2013-02-02 00:53:00,19.6,9.6,30.05,East,90,0.9,3.4,65,0.00,,,0.00,WUHU216HW,2013-02-02 05:53:00,
2013-02-02 00:58:00,19.6,9.6,30.05,ENE,68,1.1,3.6,65,0.00,,,0.00,WUHU216HW,2013-02-02 05:58:00,
2013-02-02 01:03:00,19.6,9.6,30.05,East,90,1.1,3.6,65,0.00,,,0.00,WUHU216HW,2013-02-02 06:03:00,
2013-02-02 01:08:00,19.4,9.5,30.05,ENE,68,1.8,2.2,65,0.00,,,0.00,WUHU216HW,2013-02-02 06:08:00,
2013-02-02 01:13:00,19.4,9.5,30.05,ENE,68,1.1,2.2,65,0.00,,,0.00,WUHU216HW,2013-02-02 06:13:00,
2013-02-02 01:18:00,19.4,9.5,30.05,SE,135,0.7,2.9,65,0.00,,,0.00,WUHU216HW,2013-02-02 06:18:00,
2013-02-02 01:23:00,19.4,9.5,30.05,East,90,0.0,2.9,65,0.00,,,0.00,WUHU216HW,2013-02-02 06:23:00,
2013-02-02 01:28:00,19.3,9.3,30.05,East,90,1.6,2.5,65,0.00,,,0.00,WUHU216HW,2013-02-02 06:28:00,
2013-02-02 01:33:00,19.4,9.5,30.05,South,180,4.0,4.0,65,0.00,,,0.00,WUHU216HW,2013-02-02 06:33:00,
2013-02-02 01:38:00,19.4,9.5,30.06,East,90,1.1,4.0,65,0.00,,,0.00,WUHU216HW,2013-02-02 06:38:00,
2013-02-02 01:43:00,19.4,9.5,30.06,NNE,23,1.1,4.0,65,0.00,,,0.00,WUHU216HW,2013-02-02 06:43:00,
2013-02-02 01:48:00,19.3,9.3,30.06,SE,135,0.2,3.8,65,0.00,,,0.00,WUHU216HW,2013-02-02 06:48:00,
2013-02-02 01:53:00,19.1,9.1,30.07,East,90,2.7,2.7,65,0.00,,,0.00,WUHU216HW,2013-02-02 06:53:00,
2013-02-02 01:58:00,19.1,9.1,30.07,ENE,68,0.4,2.7,65,0.00,,,0.00,WUHU216HW,2013-02-02 06:58:00,
2013-02-02 02:04:00,19.1,9.1,30.07,ENE,68,0.2,1.8,65,0.00,,,0.00,WUHU216HW,2013-02-02 07:04:00,
2013-02-02 02:09:00,18.9,9.0,30.07,NW,315,0.9,1.8,65,0.00,,,0.00,WUHU216HW,2013-02-02 07:09:00,
2013-02-02 02:14:00,18.7,8.8,30.07,ENE,68,0.4,3.1,65,0.00,,,0.00,WUHU216HW,2013-02-02 07:14:00,
2013-02-02 02:19:00,18.4,8.5,30.07,NE,45,0.4,3.1,65,0.00,,,0.00,WUHU216HW,2013-02-02 07:19:00,
2013-02-02 02:24:00,18.4,8.5,30.07,ENE,68,1.3,2.7,65,0.00,,,0.00,WUHU216HW,2013-02-02 07:24:00,
2013-02-02 02:29:00,18.2,8.3,30.08,ENE,68,0.4,2.7,65,0.00,,,0.00,WUHU216HW,2013-02-02 07:29:00,
2013-02-02 02:34:00,18.2,8.3,30.08,ESE,113,0.4,2.7,65,0.00,,,0.00,WUHU216HW,2013-02-02 07:34:00,
2013-02-02 02:40:00,18.2,8.6,30.08,East,90,0.4,3.4,66,0.00,,,0.00,WUHU216HW,2013-02-02 07:40:00,
2013-02-02 02:45:00,18.2,8.6,30.08,NE,45,1.6,3.4,66,0.00,,,0.00,WUHU216HW,2013-02-02 07:45:00,
2013-02-02 02:50:00,18.4,8.8,30.07,ENE,68,0.4,2.7,66,0.00,,,0.00,WUHU216HW,2013-02-02 07:50:00,
2013-02-02 02:55:00,18.4,9.2,30.07,ESE,113,0.2,1.3,67,0.00,,,0.00,WUHU216HW,2013-02-02 07:55:00,
2013-02-02 03:00:00,18.4,9.6,30.07,NNE,23,0.9,1.8,68,0.00,,,0.00,WUHU216HW,2013-02-02 08:00:00,
2013-02-02 03:06:00,18.4,9.2,30.07,NNE,23,1.1,1.8,67,0.00,,,0.00,WUHU216HW,2013-02-02 08:06:00,
2013-02-02 03:11:00,18.4,9.2,30.07,ENE,68,0.7,1.6,67,0.00,,,0.00,WUHU216HW,2013-02-02 08:11:00,
2013-02-02 03:16:00,18.2,9.0,30.07,SE,135,0.2,1.6,67,0.00,,,0.00,WUHU216HW,2013-02-02 08:16:00,
2013-02-02 03:21:00,18.0,8.8,30.08,East,90,1.6,1.6,67,0.00,,,0.00,WUHU216HW,2013-02-02 08:21:00,
2013-02-02 03:26:00,18.0,8.8,30.07,SE,135,0.0,1.6,67,0.00,,,0.00,WUHU216HW,2013-02-02 08:26:00,
2013-02-02 03:31:00,17.8,8.6,30.07,ESE,113,0.2,1.1,67,0.00,,,0.00,WUHU216HW,2013-02-02 08:31:00,
2013-02-02 03:36:00,17.8,9.0,30.08,NNE,23,0.4,2.0,68,0.00,,,0.00,WUHU216HW,2013-02-02 08:36:00,
2013-02-02 03:41:00,18.0,9.2,30.08,NNE,23,0.4,2.7,68,0.00,,,0.00,WUHU216HW,2013-02-02 08:41:00,
2013-02-02 03:46:00,18.0,9.2,30.08,ENE,68,0.7,2.7,68,0.00,,,0.00,WUHU216HW,2013-02-02 08:46:00,
2013-02-02 03:51:00,18.0,9.2,30.08,North,0,0.0,1.8,68,0.00,,,0.00,WUHU216HW,2013-02-02 08:51:00,
2013-02-02 03:56:00,17.6,8.8,30.08,ESE,113,1.3,1.8,68,0.00,,,0.00,WUHU216HW,2013-02-02 08:56:00,
2013-02-02 04:01:00,17.6,8.8,30.09,ENE,68,0.0,1.6,68,0.00,,,0.00,WUHU216HW,2013-02-02 09:01:00,
2013-02-02 04:06:00,17.6,9.2,30.08,ESE,113,1.8,1.8,69,0.00,,,0.00,WUHU216HW,2013-02-02 09:06:00,
2013-02-02 04:11:00,17.8,9.4,30.09,ESE,113,1.6,2.2,69,0.00,,,0.00,WUHU216HW,2013-02-02 09:11:00,
2013-02-02 04:16:00,17.8,9.4,30.09,ENE,68,0.0,2.2,69,0.00,,,0.00,WUHU216HW,2013-02-02 09:16:00,
2013-02-02 04:21:00,17.8,9.4,30.09,NNE,23,1.1,1.8,69,0.00,,,0.00,WUHU216HW,2013-02-02 09:21:00,
2013-02-02 04:26:00,17.6,9.2,30.09,North,0,1.1,1.8,69,0.00,,,0.00,WUHU216HW,2013-02-02 09:26:00,
2013-02-02 04:31:00,17.6,9.2,30.09,ESE,113,0.4,1.8,69,0.00,,,0.00,WUHU216HW,2013-02-02 09:31:00,
2013-02-02 04:36:00,17.5,9.0,30.09,ESE,113,0.2,1.8,69,0.00,,,0.00,WUHU216HW,2013-02-02 09:36:00,
2013-02-02 04:41:00,17.1,8.6,30.09,ENE,68,0.9,1.1,69,0.00,,,0.00,WUHU216HW,2013-02-02 09:41:00,
2013-02-02 04:47:00,17.1,9.0,30.09,ENE,68,0.7,2.2,70,0.00,,,0.00,WUHU216HW,2013-02-02 09:47:00,
2013-02-02 04:52:00,17.3,9.2,30.09,NE,45,1.8,2.2,70,0.00,,,0.00,WUHU216HW,2013-02-02 09:52:00,
2013-02-02 04:57:00,17.3,9.5,30.09,ENE,68,1.1,1.8,71,0.00,,,0.00,WUHU216HW,2013-02-02 09:57:00,
2013-02-02 05:02:00,17.5,9.4,30.09,ENE,68,0.2,1.1,70,0.00,,,0.00,WUHU216HW,2013-02-02 10:02:00,
2013-02-02 05:07:00,17.5,9.6,30.09,NNE,23,1.8,1.8,71,0.00,,,0.00,WUHU216HW,2013-02-02 10:07:00,
2013-02-02 05:12:00,17.5,9.6,30.09,ENE,68,0.0,2.7,71,0.00,,,0.00,WUHU216HW,2013-02-02 10:12:00,
2013-02-02 05:17:00,17.5,9.6,30.09,East,90,0.2,2.7,71,0.00,,,0.00,WUHU216HW,2013-02-02 10:17:00,
2013-02-02 05:22:00,17.3,9.5,30.09,East,90,1.1,1.8,71,0.00,,,0.00,WUHU216HW,2013-02-02 10:22:00,
2013-02-02 05:27:00,17.1,9.3,30.09,NE,45,2.2,2.2,71,0.00,,,0.00,WUHU216HW,2013-02-02 10:27:00,
2013-02-02 05:32:00,17.3,9.5,30.09,NE,45,4.0,4.0,71,0.00,,,0.00,WUHU216HW,2013-02-02 10:32:00,
2013-02-02 05:37:00,17.3,9.5,30.09,East,90,1.8,4.5,71,0.00,,,0.00,WUHU216HW,2013-02-02 10:37:00,
2013-02-02 05:42:00,17.3,9.5,30.09,NE,45,2.5,4.5,71,0.00,,,0.00,WUHU216HW,2013-02-02 10:42:00,
2013-02-02 05:47:00,17.3,9.5,30.09,ENE,68,1.1,2.5,71,0.00,,,0.00,WUHU216HW,2013-02-02 10:47:00,
2013-02-02 05:52:00,17.1,9.3,30.09,East,90,0.7,2.0,71,0.00,,,0.00,WUHU216HW,2013-02-02 10:52:00,
2013-02-02 05:57:00,17.1,9.0,30.09,ENE,68,0.4,2.2,70,0.00,,,0.00,WUHU216HW,2013-02-02 10:57:00,
2013-02-02 06:02:00,17.1,9.0,30.09,ENE,68,0.7,2.2,70,0.00,,,0.00,WUHU216HW,2013-02-02 11:02:00,
2013-02-02 06:07:00,16.9,8.8,30.09,NE,45,1.1,1.8,70,0.00,,,0.00,WUHU216HW,2013-02-02 11:07:00,
2013-02-02 06:12:00,16.7,8.6,30.10,ENE,68,1.6,1.8,70,0.00,,,0.00,WUHU216HW,2013-02-02 11:12:00,
2013-02-02 06:17:00,16.4,8.3,30.10,ENE,68,0.2,1.8,70,0.00,,,0.00,WUHU216HW,2013-02-02 11:17:00,
2013-02-02 06:22:00,16.2,8.1,30.10,ESE,113,0.9,1.6,70,0.00,,,0.00,WUHU216HW,2013-02-02 11:22:00,
2013-02-02 06:28:00,16.2,8.1,30.10,ENE,68,0.9,1.3,70,0.00,,,0.00,WUHU216HW,2013-02-02 11:28:00,
2013-02-02 06:33:00,16.2,8.4,30.10,ENE,68,0.2,1.1,71,0.00,,,0.00,WUHU216HW,2013-02-02 11:33:00,
2013-02-02 06:38:00,16.4,8.6,30.10,ENE,68,0.7,1.3,71,0.00,,,0.00,WUHU216HW,2013-02-02 11:38:00,
2013-02-02 06:43:00,16.2,8.4,30.10,ENE,68,1.3,1.8,71,0.00,,,0.00,WUHU216HW,2013-02-02 11:43:00,
2013-02-02 06:48:00,16.2,8.4,30.10,East,90,0.7,2.2,71,0.00,,,0.00,WUHU216HW,2013-02-02 11:48:00,
2013-02-02 06:53:00,16.2,8.4,30.11,NE,45,1.1,3.1,71,0.00,,,0.00,WUHU216HW,2013-02-02 11:53:00,
2013-02-02 06:59:00,16.2,8.4,30.11,ENE,68,0.7,3.1,71,0.00,,,0.00,WUHU216HW,2013-02-02 11:59:00,
2013-02-02 07:04:00,16.2,8.4,30.11,ENE,68,1.1,2.5,71,0.00,,,0.00,WUHU216HW,2013-02-02 12:04:00,
2013-02-02 07:09:00,16.2,8.4,30.11,ENE,68,1.8,2.5,71,0.00,,,0.00,WUHU216HW,2013-02-02 12:09:00,
2013-02-02 07:14:00,16.2,8.4,30.11,ENE,68,0.4,1.8,71,0.00,,,0.00,WUHU216HW,2013-02-02 12:14:00,
2013-02-02 07:19:00,16.0,8.2,30.11,ENE,68,1.3,1.3,71,0.00,,,0.00,WUHU216HW,2013-02-02 12:19:00,
2013-02-02 07:24:00,16.0,8.2,30.12,NE,45,1.3,1.3,71,0.00,,,0.00,WUHU216HW,2013-02-02 12:24:00,
2013-02-02 07:30:00,16.2,8.4,30.12,ESE,113,0.9,1.3,71,0.00,,,0.00,WUHU216HW,2013-02-02 12:30:00,
2013-02-02 07:35:00,16.2,8.4,30.12,NE,45,1.8,2.7,71,0.00,,,0.00,WUHU216HW,2013-02-02 12:35:00,
2013-02-02 07:40:00,16.4,8.6,30.12,NE,45,2.5,2.5,71,0.00,,,0.00,WUHU216HW,2013-02-02 12:40:00,
2013-02-02 07:45:00,16.4,8.6,30.12,NE,45,0.4,2.5,71,0.00,,,0.00,WUHU216HW,2013-02-02 12:45:00,
2013-02-02 07:50:00,16.6,8.7,30.12,NE,45,2.5,3.4,71,0.00,,,0.00,WUHU216HW,2013-02-02 12:50:00,
2013-02-02 07:55:00,16.7,8.9,30.12,NE,45,1.8,3.4,71,0.00,,,0.00,WUHU216HW,2013-02-02 12:55:00,
2013-02-02 08:01:00,17.1,9.3,30.13,ENE,68,2.2,2.2,71,0.00,,,0.00,WUHU216HW,2013-02-02 13:01:00,
2013-02-02 08:06:00,17.5,9.6,30.13,East,90,1.6,4.0,71,0.00,,,0.00,WUHU216HW,2013-02-02 13:06:00,
2013-02-02 08:11:00,17.6,9.8,30.13,ENE,68,1.6,4.0,71,0.00,,,0.00,WUHU216HW,2013-02-02 13:11:00,
2013-02-02 08:16:00,17.8,10.0,30.13,ENE,68,0.4,2.0,71,0.00,,,0.00,WUHU216HW,2013-02-02 13:16:00,
2013-02-02 08:21:00,18.4,10.2,30.13,East,90,1.1,1.8,70,0.00,,,0.00,WUHU216HW,2013-02-02 13:21:00,
2013-02-02 08:26:00,18.4,10.2,30.13,ENE,68,1.3,2.2,70,0.00,,,0.00,WUHU216HW,2013-02-02 13:26:00,
2013-02-02 08:32:00,18.7,10.5,30.13,North,0,1.1,3.4,70,0.00,,,0.00,WUHU216HW,2013-02-02 13:32:00,
2013-02-02 08:37:00,18.9,10.4,30.13,North,0,2.2,3.8,69,0.00,,,0.00,WUHU216HW,2013-02-02 13:37:00,
2013-02-02 08:43:00,19.1,10.5,30.13,ESE,113,2.9,3.8,69,0.00,,,0.00,WUHU216HW,2013-02-02 13:43:00,
2013-02-02 08:48:00,19.4,10.8,30.13,NE,45,0.7,2.9,69,0.00,,,0.00,WUHU216HW,2013-02-02 13:48:00,
2013-02-02 08:53:00,19.8,11.2,30.12,East,90,1.8,3.8,69,0.00,,,0.00,WUHU216HW,2013-02-02 13:53:00,
2013-02-02 08:58:00,20.0,11.0,30.13,ENE,68,3.4,3.8,68,0.00,,,0.00,WUHU216HW,2013-02-02 13:58:00,
2013-02-02 09:05:00,20.3,11.3,30.13,ENE,68,1.1,4.0,68,0.00,,,0.00,WUHU216HW,2013-02-02 14:05:00,
2013-02-02 09:10:00,20.5,11.3,30.13,ENE,68,0.9,4.0,67,0.00,,,0.00,WUHU216HW,2013-02-02 14:10:00,
2013-02-02 09:15:00,20.9,11.6,30.13,NNW,338,1.8,2.2,67,0.00,,,0.00,WUHU216HW,2013-02-02 14:15:00,
2013-02-02 09:20:00,21.2,12.0,30.13,ENE,68,1.3,3.4,67,0.00,,,0.00,WUHU216HW,2013-02-02 14:20:00,
2013-02-02 09:25:00,21.4,11.8,30.12,ESE,113,2.0,3.4,66,0.00,,,0.00,WUHU216HW,2013-02-02 14:25:00,
2013-02-02 09:30:00,22.0,12.0,30.12,NE,45,0.4,2.5,65,0.00,,,0.00,WUHU216HW,2013-02-02 14:30:00,
2013-02-02 09:35:00,22.5,12.8,30.12,NNE,23,1.3,3.4,66,0.00,,,0.00,WUHU216HW,2013-02-02 14:35:00,
2013-02-02 09:40:00,23.2,13.5,30.12,NE,45,2.0,3.4,66,0.00,,,0.00,WUHU216HW,2013-02-02 14:40:00,
2013-02-02 09:45:00,23.8,14.1,30.12,North,0,3.1,3.1,66,0.00,,,0.00,WUHU216HW,2013-02-02 14:45:00,
2013-02-02 09:50:00,24.1,14.0,30.11,NNE,23,0.4,3.1,65,0.00,,,0.00,WUHU216HW,2013-02-02 14:50:00,
2013-02-02 09:55:00,24.8,14.7,30.11,East,90,0.2,2.7,65,0.00,,,0.00,WUHU216HW,2013-02-02 14:55:00,
2013-02-02 10:00:00,25.0,14.5,30.11,NE,45,0.4,2.5,64,0.00,,,0.00,WUHU216HW,2013-02-02 15:00:00,
2013-02-02 10:05:00,25.6,15.0,30.11,NNE,23,1.1,2.9,64,0.00,,,0.00,WUHU216HW,2013-02-02 15:05:00,
2013-02-02 10:10:00,26.5,15.5,30.11,ESE,113,3.6,3.6,63,0.00,,,0.00,WUHU216HW,2013-02-02 15:10:00,
2013-02-02 10:15:00,26.8,15.5,30.11,NE,45,1.1,3.6,62,0.00,,,0.00,WUHU216HW,2013-02-02 15:15:00,
2013-02-02 10:20:00,27.5,16.2,30.11,NE,45,1.8,3.4,62,0.00,,,0.00,WUHU216HW,2013-02-02 15:20:00,
2013-02-02 10:25:00,27.9,16.6,30.11,NE,45,2.2,3.4,62,0.00,,,0.00,WUHU216HW,2013-02-02 15:25:00,
2013-02-02 10:30:00,28.4,17.1,30.10,NNE,23,2.0,2.5,62,0.00,,,0.00,WUHU216HW,2013-02-02 15:30:00,
2013-02-02 10:35:00,29.0,16.8,30.10,NNE,23,2.0,2.5,60,0.00,,,0.00,WUHU216HW,2013-02-02 15:35:00,
2013-02-02 10:40:00,29.2,16.7,30.11,North,0,2.7,3.6,59,0.00,,,0.00,WUHU216HW,2013-02-02 15:40:00,
2013-02-02 10:45:00,29.2,16.2,30.11,ENE,68,2.0,3.6,58,0.00,,,0.00,WUHU216HW,2013-02-02 15:45:00,
2013-02-02 10:50:00,29.5,16.9,30.10,NNE,23,2.0,2.9,59,0.00,,,0.00,WUHU216HW,2013-02-02 15:50:00,
2013-02-02 10:55:00,29.7,16.3,30.10,North,0,2.2,3.8,57,0.00,,,0.00,WUHU216HW,2013-02-02 15:55:00,
2013-02-02 11:00:00,29.9,16.0,30.09,NE,45,2.7,3.8,56,0.00,,,0.00,WUHU216HW,2013-02-02 16:00:00,
2013-02-02 11:05:00,30.1,15.8,30.09,NW,315,3.4,3.8,55,0.00,,,0.00,WUHU216HW,2013-02-02 16:05:00,
2013-02-02 11:10:00,29.7,14.6,30.09,NNW,338,4.9,6.3,53,0.00,,,0.00,WUHU216HW,2013-02-02 16:10:00,
2013-02-02 11:15:00,29.2,14.6,30.09,North,0,2.5,6.3,54,0.00,,,0.00,WUHU216HW,2013-02-02 16:15:00,
2013-02-02 11:20:00,29.2,14.1,30.09,East,90,1.1,4.3,53,0.00,,,0.00,WUHU216HW,2013-02-02 16:20:00,
2013-02-02 11:25:00,29.2,14.1,30.08,NE,45,4.5,4.5,53,0.00,,,0.00,WUHU216HW,2013-02-02 16:25:00,
2013-02-02 11:30:00,29.2,14.1,30.07,North,0,1.8,4.5,53,0.00,,,0.00,WUHU216HW,2013-02-02 16:30:00,
2013-02-02 11:35:00,29.7,14.6,30.07,NNE,23,4.0,5.4,53,0.00,,,0.00,WUHU216HW,2013-02-02 16:35:00,
2013-02-02 11:40:00,30.1,14.5,30.07,NE,45,2.9,5.4,52,0.00,,,0.00,WUHU216HW,2013-02-02 16:40:00,
2013-02-02 11:45:00,30.4,14.9,30.07,North,0,2.7,4.7,52,0.00,,,0.00,WUHU216HW,2013-02-02 16:45:00,
2013-02-02 11:50:00,30.6,15.0,30.06,NNW,338,4.3,5.4,52,0.00,,,0.00,WUHU216HW,2013-02-02 16:50:00,
2013-02-02 11:55:00,30.8,14.8,30.06,ENE,68,4.7,5.4,51,0.00,,,0.00,WUHU216HW,2013-02-02 16:55:00,
2013-02-02 12:00:00,31.1,14.7,30.05,WNW,293,5.4,5.4,50,0.00,,,0.00,WUHU216HW,2013-02-02 17:00:00,
2013-02-02 12:05:00,31.3,13.9,30.05,NNE,23,4.5,6.9,48,0.00,,,0.00,WUHU216HW,2013-02-02 17:05:00,
2013-02-02 12:10:00,31.3,14.3,30.04,North,0,2.9,6.9,49,0.00,,,0.00,WUHU216HW,2013-02-02 17:10:00,
2013-02-02 12:15:00,31.9,14.3,30.04,North,0,3.6,6.5,48,0.00,,,0.00,WUHU216HW,2013-02-02 17:15:00,
2013-02-02 12:20:00,32.2,14.7,30.04,NNE,23,3.6,4.9,48,0.00,,,0.00,WUHU216HW,2013-02-02 17:20:00,
2013-02-02 12:25:00,32.4,14.8,30.04,NE,45,5.6,6.3,48,0.00,,,0.00,WUHU216HW,2013-02-02 17:25:00,
2013-02-02 12:30:00,32.2,13.2,30.03,NNW,338,5.1,6.3,45,0.00,,,0.00,WUHU216HW,2013-02-02 17:30:00,
2013-02-02 12:37:00,31.7,13.1,30.03,NNE,23,7.6,7.6,46,0.00,,,0.00,WUHU216HW,2013-02-02 17:37:00,
2013-02-02 12:42:00,31.7,13.1,30.02,WNW,293,5.4,7.6,46,0.00,,,0.00,WUHU216HW,2013-02-02 17:42:00,
2013-02-02 12:49:00,31.7,12.6,30.03,NNE,23,4.9,9.6,45,0.00,,,0.00,WUHU216HW,2013-02-02 17:49:00,
2013-02-02 12:54:00,31.7,12.6,30.02,NNE,23,6.3,9.6,45,0.00,,,0.00,WUHU216HW,2013-02-02 17:54:00,
2013-02-02 12:59:00,31.9,13.3,30.02,ENE,68,6.0,7.8,46,0.00,,,0.00,WUHU216HW,2013-02-02 17:59:00,
2013-02-02 13:04:00,32.0,13.5,30.02,NNE,23,1.8,6.0,46,0.00,,,0.00,WUHU216HW,2013-02-02 18:04:00,
2013-02-02 13:10:00,32.0,12.4,30.01,North,0,3.4,6.5,44,0.00,,,0.00,WUHU216HW,2013-02-02 18:10:00,
2013-02-02 13:15:00,32.0,13.0,30.01,NNW,338,5.8,6.5,45,0.00,,,0.00,WUHU216HW,2013-02-02 18:15:00,
2013-02-02 13:20:00,32.2,13.6,30.00,North,0,2.5,6.3,46,0.00,,,0.00,WUHU216HW,2013-02-02 18:20:00,
2013-02-02 13:25:00,32.0,13.0,30.00,NNW,338,4.7,8.7,45,0.00,,,0.00,WUHU216HW,2013-02-02 18:25:00,
2013-02-02 13:30:00,32.0,13.5,30.00,NE,45,4.9,8.7,46,0.00,,,0.00,WUHU216HW,2013-02-02 18:30:00,
2013-02-02 13:35:00,31.9,13.3,30.00,NE,45,4.0,7.6,46,0.00,,,0.00,WUHU216HW,2013-02-02 18:35:00,
2013-02-02 13:41:00,32.0,14.0,29.99,North,0,2.9,7.6,47,0.00,,,0.00,WUHU216HW,2013-02-02 18:41:00,
2013-02-02 13:46:00,32.4,14.3,29.99,NE,45,8.5,8.5,47,0.00,,,0.00,WUHU216HW,2013-02-02 18:46:00,
2013-02-02 13:51:00,31.9,12.8,29.99,NE,45,6.0,8.5,45,0.00,,,0.00,WUHU216HW,2013-02-02 18:51:00,
2013-02-02 13:56:00,31.0,12.5,30.00,NNE,23,3.8,6.5,46,0.00,,,0.00,WUHU216HW,2013-02-02 18:56:00,
2013-02-02 14:01:00,31.0,12.5,29.99,NNW,338,4.0,6.3,46,0.00,,,0.00,WUHU216HW,2013-02-02 19:01:00,
2013-02-02 14:06:00,31.0,12.0,29.99,NNE,23,7.6,7.6,45,0.00,,,0.00,WUHU216HW,2013-02-02 19:06:00,
2013-02-02 14:11:00,31.0,11.5,29.99,NNE,23,3.4,7.6,44,0.00,,,0.00,WUHU216HW,2013-02-02 19:11:00,
2013-02-02 14:16:00,31.0,11.5,29.99,ENE,68,6.5,6.7,44,0.00,,,0.00,WUHU216HW,2013-02-02 19:16:00,
2013-02-02 14:21:00,30.4,11.0,29.98,NE,45,3.4,8.7,44,0.00,,,0.00,WUHU216HW,2013-02-02 19:21:00,
2013-02-02 14:26:00,30.6,11.7,29.98,NNE,23,3.6,8.7,45,0.00,,,0.00,WUHU216HW,2013-02-02 19:26:00,
2013-02-02 14:31:00,30.6,11.2,29.98,NNE,23,4.7,6.9,44,0.00,,,0.00,WUHU216HW,2013-02-02 19:31:00,
2013-02-02 14:36:00,30.1,10.7,29.98,North,0,4.0,6.9,44,0.00,,,0.00,WUHU216HW,2013-02-02 19:36:00,
2013-02-02 14:41:00,29.7,10.4,29.98,North,0,1.8,6.7,44,0.00,,,0.00,WUHU216HW,2013-02-02 19:41:00,
2013-02-02 14:46:00,29.5,9.7,29.97,NNE,23,6.3,6.9,43,0.00,,,0.00,WUHU216HW,2013-02-02 19:46:00,
2013-02-02 14:51:00,29.3,10.5,29.98,NE,45,5.1,6.9,45,0.00,,,0.00,WUHU216HW,2013-02-02 19:51:00,
2013-02-02 14:56:00,29.2,10.4,29.97,NNE,23,3.4,5.4,45,0.00,,,0.00,WUHU216HW,2013-02-02 19:56:00,
2013-02-02 15:01:00,29.0,10.2,29.97,NNE,23,3.4,6.5,45,0.00,,,0.00,WUHU216HW,2013-02-02 20:01:00,
2013-02-02 15:06:00,28.8,10.1,29.97,North,0,5.4,5.4,45,0.00,,,0.00,WUHU216HW,2013-02-02 20:06:00,
2013-02-02 15:11:00,28.4,9.7,29.97,NW,315,6.7,6.7,45,0.00,,,0.00,WUHU216HW,2013-02-02 20:11:00,
2013-02-02 15:16:00,28.3,10.1,29.97,NE,45,3.1,6.7,46,0.00,,,0.00,WUHU216HW,2013-02-02 20:16:00,
2013-02-02 15:22:00,28.4,10.3,29.97,NE,45,6.9,6.9,46,0.00,,,0.00,WUHU216HW,2013-02-02 20:22:00,
2013-02-02 15:27:00,28.3,10.1,29.96,North,0,1.3,6.9,46,0.00,,,0.00,WUHU216HW,2013-02-02 20:27:00,
2013-02-02 15:32:00,28.4,10.3,29.96,North,0,4.7,6.3,46,0.00,,,0.00,WUHU216HW,2013-02-02 20:32:00,
2013-02-02 15:37:00,28.3,10.1,29.96,NE,45,4.9,4.9,46,0.00,,,0.00,WUHU216HW,2013-02-02 20:37:00,
2013-02-02 15:42:00,28.1,9.9,29.96,NE,45,4.5,6.3,46,0.00,,,0.00,WUHU216HW,2013-02-02 20:42:00,
2013-02-02 15:47:00,27.9,10.2,29.96,ENE,68,2.5,6.7,47,0.00,,,0.00,WUHU216HW,2013-02-02 20:47:00,
2013-02-02 15:52:00,27.7,10.0,29.96,East,90,3.1,6.7,47,0.00,,,0.00,WUHU216HW,2013-02-02 20:52:00,
2013-02-02 15:57:00,27.7,9.6,29.96,NE,45,5.4,6.5,46,0.00,,,0.00,WUHU216HW,2013-02-02 20:57:00,
2013-02-02 16:02:00,27.4,9.2,29.96,NE,45,6.3,7.2,46,0.00,,,0.00,WUHU216HW,2013-02-02 21:02:00,
2013-02-02 16:07:00,27.0,8.8,29.96,NE,45,3.4,7.2,46,0.00,,,0.00,WUHU216HW,2013-02-02 21:07:00,
2013-02-02 16:12:00,27.0,9.4,29.96,NNE,23,4.5,5.1,47,0.00,,,0.00,WUHU216HW,2013-02-02 21:12:00,
2013-02-02 16:17:00,27.0,8.8,29.96,NE,45,2.9,6.3,46,0.00,,,0.00,WUHU216HW,2013-02-02 21:17:00,
2013-02-02 16:22:00,26.8,9.2,29.96,ENE,68,4.0,6.3,47,0.00,,,0.00,WUHU216HW,2013-02-02 21:22:00,
2013-02-02 16:27:00,26.8,9.2,29.96,ENE,68,3.8,5.6,47,0.00,,,0.00,WUHU216HW,2013-02-02 21:27:00,
2013-02-02 16:32:00,26.8,9.2,29.96,NE,45,4.9,4.9,47,0.00,,,0.00,WUHU216HW,2013-02-02 21:32:00,
2013-02-02 16:37:00,26.6,9.5,29.96,ENE,68,3.6,5.8,48,0.00,,,0.00,WUHU216HW,2013-02-02 21:37:00,
2013-02-02 16:42:00,26.5,9.3,29.96,NE,45,2.9,5.8,48,0.00,,,0.00,WUHU216HW,2013-02-02 21:42:00,
2013-02-02 16:47:00,26.3,9.2,29.96,NE,45,2.5,5.4,48,0.00,,,0.00,WUHU216HW,2013-02-02 21:47:00,
2013-02-02 16:52:00,26.1,9.0,29.96,NNE,23,4.0,4.5,48,0.00,,,0.00,WUHU216HW,2013-02-02 21:52:00,
2013-02-02 16:57:00,25.9,9.3,29.96,NNE,23,3.1,4.5,49,0.00,,,0.00,WUHU216HW,2013-02-02 21:57:00,
2013-02-02 17:03:00,25.7,9.6,29.95,North,0,3.4,3.4,50,0.00,,,0.00,WUHU216HW,2013-02-02 22:03:00,
2013-02-02 17:08:00,25.7,9.6,29.95,ENE,68,5.6,5.6,50,0.00,,,0.00,WUHU216HW,2013-02-02 22:08:00,
2013-02-02 17:13:00,25.6,9.9,29.95,NE,45,4.0,5.6,51,0.00,,,0.00,WUHU216HW,2013-02-02 22:13:00,
2013-02-02 17:18:00,25.6,9.9,29.95,North,0,5.4,5.4,51,0.00,,,0.00,WUHU216HW,2013-02-02 22:18:00,
2013-02-02 17:23:00,25.4,9.7,29.94,NE,45,1.6,6.5,51,0.00,,,0.00,WUHU216HW,2013-02-02 22:23:00,
2013-02-02 17:28:00,25.2,10.0,29.94,North,0,4.0,6.5,52,0.00,,,0.00,WUHU216HW,2013-02-02 22:28:00,
2013-02-02 17:34:00,25.0,9.8,29.95,NE,45,1.1,4.7,52,0.00,,,0.00,WUHU216HW,2013-02-02 22:34:00,
2013-02-02 17:39:00,24.8,10.1,29.95,NE,45,2.0,3.6,53,0.00,,,0.00,WUHU216HW,2013-02-02 22:39:00,
2013-02-02 17:46:00,24.8,10.1,29.95,ENE,68,0.4,4.0,53,0.00,,,0.00,WUHU216HW,2013-02-02 22:46:00,
2013-02-02 17:51:00,24.8,10.1,29.95,East,90,0.4,4.0,53,0.00,,,0.00,WUHU216HW,2013-02-02 22:51:00,
2013-02-02 17:56:00,24.7,10.4,29.95,NNE,23,2.5,2.5,54,0.00,,,0.00,WUHU216HW,2013-02-02 22:56:00,
2013-02-02 18:01:00,24.5,10.2,29.95,ENE,68,1.1,2.5,54,0.00,,,0.00,WUHU216HW,2013-02-02 23:01:00,
2013-02-02 18:06:00,24.5,10.2,29.95,NE,45,0.4,2.5,54,0.00,,,0.00,WUHU216HW,2013-02-02 23:06:00,
2013-02-02 18:11:00,24.3,10.4,29.95,NE,45,1.8,2.2,55,0.00,,,0.00,WUHU216HW,2013-02-02 23:11:00,
2013-02-02 18:16:00,24.1,10.2,29.95,NE,45,1.1,1.8,55,0.00,,,0.00,WUHU216HW,2013-02-02 23:16:00,
2013-02-02 18:21:00,24.1,10.2,29.95,ENE,68,0.9,1.1,55,0.00,,,0.00,WUHU216HW,2013-02-02 23:21:00,
2013-02-02 18:27:00,24.1,10.2,29.95,NE,45,1.1,1.3,55,0.00,,,0.00,WUHU216HW,2013-02-02 23:27:00,
2013-02-02 18:32:00,24.1,10.6,29.95,NE,45,2.7,2.7,56,0.00,,,0.00,WUHU216HW,2013-02-02 23:32:00,
2013-02-02 18:37:00,24.1,10.6,29.95,ENE,68,1.1,2.7,56,0.00,,,0.00,WUHU216HW,2013-02-02 23:37:00,
2013-02-02 18:42:00,24.1,11.0,29.96,NE,45,2.2,2.9,57,0.00,,,0.00,WUHU216HW,2013-02-02 23:42:00,
2013-02-02 18:47:00,24.1,11.0,29.95,North,0,2.5,5.4,57,0.00,,,0.00,WUHU216HW,2013-02-02 23:47:00,
2013-02-02 18:52:00,24.3,11.6,29.95,ENE,68,3.4,5.4,58,0.00,,,0.00,WUHU216HW,2013-02-02 23:52:00,
2013-02-02 18:57:00,24.3,11.6,29.95,ENE,68,3.8,4.0,58,0.00,,,0.00,WUHU216HW,2013-02-02 23:57:00,
2013-02-02 19:02:00,24.3,11.6,29.95,NNE,23,2.0,4.0,58,0.00,,,0.00,WUHU216HW,2013-02-03 00:02:00,
2013-02-02 19:07:00,24.3,12.0,29.95,NE,45,3.4,3.6,59,0.00,,,0.00,WUHU216HW,2013-02-03 00:07:00,
2013-02-02 19:12:00,24.3,12.0,29.95,NE,45,4.3,4.7,59,0.00,,,0.00,WUHU216HW,2013-02-03 00:12:00,
2013-02-02 19:18:00,24.1,11.8,29.96,NNE,23,1.3,4.7,59,0.00,,,0.00,WUHU216HW,2013-02-03 00:18:00,
2013-02-02 19:23:00,24.1,12.2,29.95,North,0,4.0,4.9,60,0.00,,,0.00,WUHU216HW,2013-02-03 00:23:00,
2013-02-02 19:29:00,24.1,12.2,29.95,NE,45,0.2,6.5,60,0.00,,,0.00,WUHU216HW,2013-02-03 00:29:00,
2013-02-02 19:34:00,23.9,12.4,29.96,NE,45,1.8,4.0,61,0.00,,,0.00,WUHU216HW,2013-02-03 00:34:00,
2013-02-02 19:39:00,23.9,12.4,29.95,NE,45,1.6,4.7,61,0.00,,,0.00,WUHU216HW,2013-02-03 00:39:00,
2013-02-02 19:44:00,23.8,12.6,29.96,NE,45,1.8,4.7,62,0.00,,,0.00,WUHU216HW,2013-02-03 00:44:00,
2013-02-02 19:50:00,23.8,13.0,29.96,ENE,68,1.1,2.5,63,0.00,,,0.00,WUHU216HW,2013-02-03 00:50:00,
2013-02-02 19:55:00,23.6,13.2,29.96,ENE,68,0.4,3.8,64,0.00,,,0.00,WUHU216HW,2013-02-03 00:55:00,
2013-02-02 20:01:00,23.4,13.3,29.95,East,90,0.4,3.8,65,0.00,,,0.00,WUHU216HW,2013-02-03 01:01:00,
2013-02-02 20:06:00,23.4,14.1,29.96,NE,45,0.7,1.8,67,0.00,,,0.00,WUHU216HW,2013-02-03 01:06:00,
2013-02-02 20:11:00,23.2,13.9,29.96,ENE,68,1.1,1.8,67,0.00,,,0.00,WUHU216HW,2013-02-03 01:11:00,
2013-02-02 20:16:00,23.0,14.4,29.96,ENE,68,1.6,1.8,69,0.00,,,0.00,WUHU216HW,2013-02-03 01:16:00,
2013-02-02 20:21:00,22.9,14.2,29.96,NE,45,1.1,1.8,69,0.00,,,0.00,WUHU216HW,2013-02-03 01:21:00,
2013-02-02 20:26:00,22.7,14.0,29.95,ENE,68,1.6,1.6,69,0.00,,,0.00,WUHU216HW,2013-02-03 01:26:00,
2013-02-02 20:31:00,22.7,14.0,29.95,East,90,1.1,2.0,69,0.00,,,0.00,WUHU216HW,2013-02-03 01:31:00,
2013-02-02 20:36:00,22.5,14.5,29.96,East,90,0.2,2.5,71,0.00,,,0.00,WUHU216HW,2013-02-03 01:36:00,
2013-02-02 20:41:00,22.5,14.2,29.96,East,90,1.1,2.5,70,0.00,,,0.00,WUHU216HW,2013-02-03 01:41:00,
2013-02-02 20:46:00,22.3,14.3,29.95,East,90,1.1,1.1,71,0.00,,,0.00,WUHU216HW,2013-02-03 01:46:00,
2013-02-02 20:51:00,22.3,14.7,29.96,ENE,68,0.0,2.5,72,0.00,,,0.00,WUHU216HW,2013-02-03 01:51:00,
2013-02-02 20:56:00,22.3,14.7,29.96,NE,45,1.1,2.5,72,0.00,,,0.00,WUHU216HW,2013-02-03 01:56:00,
2013-02-02 21:01:00,22.3,14.7,29.96,NE,45,1.3,1.8,72,0.00,,,0.00,WUHU216HW,2013-02-03 02:01:00,
2013-02-02 21:06:00,22.3,14.9,29.96,ENE,68,0.9,3.1,73,0.00,,,0.00,WUHU216HW,2013-02-03 02:06:00,
2013-02-02 21:11:00,22.1,14.8,29.96,East,90,0.0,3.1,73,0.00,,,0.00,WUHU216HW,2013-02-03 02:11:00,
2013-02-02 21:16:00,22.1,14.8,29.96,ENE,68,0.0,2.7,73,0.00,,,0.00,WUHU216HW,2013-02-03 02:16:00,
2013-02-02 21:21:00,22.1,15.1,29.96,ENE,68,1.1,1.6,74,0.00,,,0.00,WUHU216HW,2013-02-03 02:21:00,
2013-02-02 21:26:00,22.1,15.1,29.96,NE,45,0.4,1.6,74,0.00,,,0.00,WUHU216HW,2013-02-03 02:26:00,
2013-02-02 21:32:00,22.1,15.4,29.96,NE,45,0.7,1.1,75,0.00,,,0.00,WUHU216HW,2013-02-03 02:32:00,
2013-02-02 21:37:00,22.1,15.4,29.96,NE,45,0.2,1.1,75,0.00,,,0.00,WUHU216HW,2013-02-03 02:37:00,
2013-02-02 21:42:00,22.0,15.2,29.96,NE,45,0.4,1.1,75,0.00,,,0.00,WUHU216HW,2013-02-03 02:42:00,
2013-02-02 21:47:00,22.1,15.4,29.96,NE,45,0.2,1.1,75,0.00,,,0.00,WUHU216HW,2013-02-03 02:47:00,
2013-02-02 21:52:00,22.1,15.4,29.95,NNE,23,0.7,1.3,75,0.00,,,0.00,WUHU216HW,2013-02-03 02:52:00,
2013-02-02 21:57:00,22.1,15.4,29.95,NNE,23,0.4,1.8,75,0.00,,,0.00,WUHU216HW,2013-02-03 02:57:00,
2013-02-02 22:02:00,22.1,15.4,29.96,NNE,23,0.0,1.8,75,0.00,,,0.00,WUHU216HW,2013-02-03 03:02:00,
2013-02-02 22:07:00,22.1,15.4,29.95,NNE,23,0.0,0.7,75,0.00,,,0.00,WUHU216HW,2013-02-03 03:07:00,
2013-02-02 22:12:00,22.1,15.4,29.95,NNE,23,0.4,0.7,75,0.00,,,0.00,WUHU216HW,2013-02-03 03:12:00,
2013-02-02 22:17:00,22.0,15.5,29.95,NNE,23,0.2,0.9,76,0.00,,,0.00,WUHU216HW,2013-02-03 03:17:00,
2013-02-02 22:23:00,22.0,15.5,29.95,NNE,23,1.1,1.1,76,0.00,,,0.00,WUHU216HW,2013-02-03 03:23:00,
2013-02-02 22:28:00,22.0,15.5,29.95,NNE,23,0.2,1.1,76,0.00,,,0.00,WUHU216HW,2013-02-03 03:28:00,
2013-02-02 22:33:00,22.0,15.5,29.95,NNE,23,0.4,0.4,76,0.00,,,0.00,WUHU216HW,2013-02-03 03:33:00,
2013-02-02 22:38:00,22.0,15.5,29.95,NNE,23,0.7,0.9,76,0.00,,,0.00,WUHU216HW,2013-02-03 03:38:00,
2013-02-02 22:45:00,22.0,15.5,29.95,NNE,23,0.2,1.3,76,0.00,,,0.00,WUHU216HW,2013-02-03 03:45:00,
2013-02-02 22:50:00,22.0,15.5,29.95,NNE,23,0.2,1.3,76,0.00,,,0.00,WUHU216HW,2013-02-03 03:50:00,
2013-02-02 22:55:00,22.0,15.9,29.95,NNE,23,0.4,0.4,77,0.00,,,0.00,WUHU216HW,2013-02-03 03:55:00,
2013-02-02 23:00:00,22.0,15.9,29.94,NNE,23,0.2,1.3,77,0.00,,,0.00,WUHU216HW,2013-02-03 04:00:00,
2013-02-02 23:05:00,22.0,15.9,29.94,NNE,23,0.4,1.3,77,0.00,,,0.00,WUHU216HW,2013-02-03 04:05:00,
2013-02-02 23:10:00,22.0,15.9,29.94,NNE,23,1.3,1.3,77,0.00,,,0.00,WUHU216HW,2013-02-03 04:10:00,
2013-02-02 23:15:00,22.0,15.9,29.94,NNE,23,0.4,1.3,77,0.00,,,0.00,WUHU216HW,2013-02-03 04:15:00,
2013-02-02 23:20:00,22.0,15.9,29.94,NNE,23,0.4,1.1,77,0.00,,,0.00,WUHU216HW,2013-02-03 04:20:00,
2013-02-02 23:25:00,22.0,15.9,29.94,NNE,23,0.9,1.1,77,0.00,,,0.00,WUHU216HW,2013-02-03 04:25:00,
2013-02-02 23:30:00,22.0,15.9,29.94,NNE,23,1.1,1.8,77,0.00,,,0.00,WUHU216HW,2013-02-03 04:30:00,
2013-02-02 23:35:00,22.0,15.9,29.94,NNE,23,1.1,1.8,77,0.00,,,0.00,WUHU216HW,2013-02-03 04:35:00,
2013-02-02 23:40:00,21.8,15.7,29.93,NNE,23,0.4,1.3,77,0.00,,,0.00,WUHU216HW,2013-02-03 04:40:00,
2013-02-02 23:46:00,21.8,15.7,29.93,NNE,23,0.4,1.1,77,0.00,,,0.00,WUHU216HW,2013-02-03 04:46:00,
2013-02-02 23:51:00,21.8,15.7,29.93,North,0,1.1,1.6,77,0.00,,,0.00,WUHU216HW,2013-02-03 04:51:00,
2013-02-02 23:56:00,21.8,15.7,29.93,North,0,0.0,1.6,77,0.00,,,0.00,WUHU216HW,2013-02-03 04:56:00,